sensor_id;sensor_type;location;lat;lon;timestamp;temperature;humidity
37528;DHT22;23372;52.050;4.810;2024-03-25T00:02:07;5.00;99.90
37528;DHT22;23372;52.050;4.810;2024-03-25T00:04:33;5.00;99.90
37528;DHT22;23372;52.050;4.810;2024-03-25T00:06:59;5.00;99.90
37528;DHT22;23372;52.050;4.810;2024-03-25T00:09:24;4.80;99.90
37528;DHT22;23372;52.050;4.810;2024-03-25T00:11:50;4.80;99.90
37528;DHT22;23372;52.050;4.810;2024-03-25T00:14:21;4.80;99.90
37528;DHT22;23372;52.050;4.810;2024-03-25T00:16:46;4.80;99.90
37528;DHT22;23372;52.050;4.810;2024-03-25T00:19:12;4.80;99.90
37528;DHT22;23372;52.050;4.810;2024-03-25T00:21:38;4.80;99.90
37528;DHT22;23372;52.050;4.810;2024-03-25T00:24:04;4.80;99.90
37528;DHT22;23372;52.050;4.810;2024-03-25T00:26:29;4.80;99.90
37528;DHT22;23372;52.050;4.810;2024-03-25T00:28:55;4.70;99.90
37528;DHT22;23372;52.050;4.810;2024-03-25T00:31:21;4.80;99.90
37528;DHT22;23372;52.050;4.810;2024-03-25T00:33:46;4.80;99.90
37528;DHT22;23372;52.050;4.810;2024-03-25T00:36:12;4.80;99.90
37528;DHT22;23372;52.050;4.810;2024-03-25T00:38:37;4.90;99.90
37528;DHT22;23372;52.050;4.810;2024-03-25T00:41:03;5.10;99.90
37528;DHT22;23372;52.050;4.810;2024-03-25T00:43:29;5.20;99.90
37528;DHT22;23372;52.050;4.810;2024-03-25T00:45:54;5.30;99.90
37528;DHT22;23372;52.050;4.810;2024-03-25T00:48:22;5.40;99.90
37528;DHT22;23372;52.050;4.810;2024-03-25T00:50:48;5.50;99.90
37528;DHT22;23372;52.050;4.810;2024-03-25T00:53:14;5.60;99.90
37528;DHT22;23372;52.050;4.810;2024-03-25T00:55:40;5.70;99.90
37528;DHT22;23372;52.050;4.810;2024-03-25T00:58:06;5.80;99.90
37528;DHT22;23372;52.050;4.810;2024-03-25T01:00:31;5.80;99.90
37528;DHT22;23372;52.050;4.810;2024-03-25T01:02:57;5.90;99.90
37528;DHT22;23372;52.050;4.810;2024-03-25T01:05:22;5.90;99.90
37528;DHT22;23372;52.050;4.810;2024-03-25T01:07:48;5.90;99.90
37528;DHT22;23372;52.050;4.810;2024-03-25T01:10:15;5.90;99.90
37528;DHT22;23372;52.050;4.810;2024-03-25T01:12:41;5.90;99.90
37528;DHT22;23372;52.050;4.810;2024-03-25T01:15:07;5.90;99.90
37528;DHT22;23372;52.050;4.810;2024-03-25T01:17:36;5.90;99.90
37528;DHT22;23372;52.050;4.810;2024-03-25T01:20:02;5.90;99.90
37528;DHT22;23372;52.050;4.810;2024-03-25T01:22:28;5.90;99.90
37528;DHT22;23372;52.050;4.810;2024-03-25T01:24:54;5.90;99.90
37528;DHT22;23372;52.050;4.810;2024-03-25T01:27:20;5.80;99.90
37528;DHT22;23372;52.050;4.810;2024-03-25T01:29:45;5.80;99.90
37528;DHT22;23372;52.050;4.810;2024-03-25T01:32:11;5.70;99.90
37528;DHT22;23372;52.050;4.810;2024-03-25T01:34:36;5.60;99.90
37528;DHT22;23372;52.050;4.810;2024-03-25T01:37:02;5.50;99.90
37528;DHT22;23372;52.050;4.810;2024-03-25T01:39:29;5.60;99.90
37528;DHT22;23372;52.050;4.810;2024-03-25T01:41:54;5.60;99.90
37528;DHT22;23372;52.050;4.810;2024-03-25T01:44:20;5.60;99.90
37528;DHT22;23372;52.050;4.810;2024-03-25T01:46:45;5.70;99.90
37528;DHT22;23372;52.050;4.810;2024-03-25T01:49:11;5.70;99.90
37528;DHT22;23372;52.050;4.810;2024-03-25T01:51:38;5.70;99.90
37528;DHT22;23372;52.050;4.810;2024-03-25T01:54:04;5.70;99.90
37528;DHT22;23372;52.050;4.810;2024-03-25T01:56:33;5.80;99.90
37528;DHT22;23372;52.050;4.810;2024-03-25T01:58:59;5.80;99.90
37528;DHT22;23372;52.050;4.810;2024-03-25T02:01:26;5.80;99.90
37528;DHT22;23372;52.050;4.810;2024-03-25T02:03:53;5.80;99.90
37528;DHT22;23372;52.050;4.810;2024-03-25T02:06:20;5.80;99.90
37528;DHT22;23372;52.050;4.810;2024-03-25T02:08:47;5.90;99.90
37528;DHT22;23372;52.050;4.810;2024-03-25T02:11:14;5.90;99.90
37528;DHT22;23372;52.050;4.810;2024-03-25T02:13:40;5.90;99.90
37528;DHT22;23372;52.050;4.810;2024-03-25T02:16:06;5.80;99.90
37528;DHT22;23372;52.050;4.810;2024-03-25T02:18:32;5.80;99.90
37528;DHT22;23372;52.050;4.810;2024-03-25T02:20:58;5.70;99.90
37528;DHT22;23372;52.050;4.810;2024-03-25T02:23:24;5.70;99.90
37528;DHT22;23372;52.050;4.810;2024-03-25T02:25:51;5.70;99.90
37528;DHT22;23372;52.050;4.810;2024-03-25T02:28:16;5.60;99.90
37528;DHT22;23372;52.050;4.810;2024-03-25T02:30:42;5.50;99.90
37528;DHT22;23372;52.050;4.810;2024-03-25T02:33:08;5.50;99.90
37528;DHT22;23372;52.050;4.810;2024-03-25T02:35:34;5.40;99.90
37528;DHT22;23372;52.050;4.810;2024-03-25T02:38:01;5.30;99.90
37528;DHT22;23372;52.050;4.810;2024-03-25T02:40:29;5.20;99.90
37528;DHT22;23372;52.050;4.810;2024-03-25T02:42:55;5.10;99.90
37528;DHT22;23372;52.050;4.810;2024-03-25T02:45:21;5.10;99.90
37528;DHT22;23372;52.050;4.810;2024-03-25T02:47:46;5.10;99.90
37528;DHT22;23372;52.050;4.810;2024-03-25T02:50:12;5.10;99.90
37528;DHT22;23372;52.050;4.810;2024-03-25T02:52:38;5.00;99.90
37528;DHT22;23372;52.050;4.810;2024-03-25T02:55:03;5.10;99.90
37528;DHT22;23372;52.050;4.810;2024-03-25T02:57:30;5.10;99.90
37528;DHT22;23372;52.050;4.810;2024-03-25T02:59:56;5.10;99.90
37528;DHT22;23372;52.050;4.810;2024-03-25T03:02:22;5.00;99.90
37528;DHT22;23372;52.050;4.810;2024-03-25T03:04:47;5.00;99.90
37528;DHT22;23372;52.050;4.810;2024-03-25T03:07:13;5.00;99.90
37528;DHT22;23372;52.050;4.810;2024-03-25T03:09:38;4.90;99.90
37528;DHT22;23372;52.050;4.810;2024-03-25T03:12:04;5.00;99.90
37528;DHT22;23372;52.050;4.810;2024-03-25T03:14:30;5.00;99.90
37528;DHT22;23372;52.050;4.810;2024-03-25T03:16:56;5.00;99.90
37528;DHT22;23372;52.050;4.810;2024-03-25T03:19:25;5.00;99.90
37528;DHT22;23372;52.050;4.810;2024-03-25T03:21:51;5.00;99.90
37528;DHT22;23372;52.050;4.810;2024-03-25T03:24:17;5.00;99.90
37528;DHT22;23372;52.050;4.810;2024-03-25T03:26:43;5.00;99.90
37528;DHT22;23372;52.050;4.810;2024-03-25T03:29:09;4.90;99.90
37528;DHT22;23372;52.050;4.810;2024-03-25T03:31:35;4.80;99.90
37528;DHT22;23372;52.050;4.810;2024-03-25T03:34:01;4.70;99.90
37528;DHT22;23372;52.050;4.810;2024-03-25T03:36:27;4.70;99.90
37528;DHT22;23372;52.050;4.810;2024-03-25T03:38:52;4.70;99.90
37528;DHT22;23372;52.050;4.810;2024-03-25T03:41:18;4.70;99.90
37528;DHT22;23372;52.050;4.810;2024-03-25T03:43:43;4.70;99.90
37528;DHT22;23372;52.050;4.810;2024-03-25T03:46:09;4.70;99.90
37528;DHT22;23372;52.050;4.810;2024-03-25T03:48:35;4.70;99.90
37528;DHT22;23372;52.050;4.810;2024-03-25T03:51:01;4.70;99.90
37528;DHT22;23372;52.050;4.810;2024-03-25T03:53:27;4.70;99.90
37528;DHT22;23372;52.050;4.810;2024-03-25T03:55:54;4.70;99.90
37528;DHT22;23372;52.050;4.810;2024-03-25T03:58:20;4.70;99.90
37528;DHT22;23372;52.050;4.810;2024-03-25T04:00:46;4.80;99.90
37528;DHT22;23372;52.050;4.810;2024-03-25T04:03:12;4.80;99.90
37528;DHT22;23372;52.050;4.810;2024-03-25T04:05:37;4.70;99.90
37528;DHT22;23372;52.050;4.810;2024-03-25T04:08:03;4.70;99.90
37528;DHT22;23372;52.050;4.810;2024-03-25T04:10:29;4.60;99.90
37528;DHT22;23372;52.050;4.810;2024-03-25T04:12:54;4.50;99.90
37528;DHT22;23372;52.050;4.810;2024-03-25T04:15:21;4.60;99.90
37528;DHT22;23372;52.050;4.810;2024-03-25T04:17:47;4.50;99.90
37528;DHT22;23372;52.050;4.810;2024-03-25T04:20:15;4.40;99.90
37528;DHT22;23372;52.050;4.810;2024-03-25T04:22:45;4.40;99.90
37528;DHT22;23372;52.050;4.810;2024-03-25T04:25:12;4.40;99.90
37528;DHT22;23372;52.050;4.810;2024-03-25T04:27:40;4.40;99.90
37528;DHT22;23372;52.050;4.810;2024-03-25T04:30:07;4.30;99.90
37528;DHT22;23372;52.050;4.810;2024-03-25T04:32:34;4.20;99.90
37528;DHT22;23372;52.050;4.810;2024-03-25T04:34:59;4.10;99.90
37528;DHT22;23372;52.050;4.810;2024-03-25T04:37:25;4.00;99.90
37528;DHT22;23372;52.050;4.810;2024-03-25T04:39:51;3.90;99.90
37528;DHT22;23372;52.050;4.810;2024-03-25T04:42:16;3.80;99.90
37528;DHT22;23372;52.050;4.810;2024-03-25T04:44:42;3.80;99.90
37528;DHT22;23372;52.050;4.810;2024-03-25T04:47:08;3.80;99.90
37528;DHT22;23372;52.050;4.810;2024-03-25T04:49:33;3.70;99.90
37528;DHT22;23372;52.050;4.810;2024-03-25T04:51:59;3.70;99.90
37528;DHT22;23372;52.050;4.810;2024-03-25T04:54:24;3.70;99.90
37528;DHT22;23372;52.050;4.810;2024-03-25T04:56:50;3.70;99.90
37528;DHT22;23372;52.050;4.810;2024-03-25T04:59:15;3.70;99.90
37528;DHT22;23372;52.050;4.810;2024-03-25T05:01:41;3.80;99.90
37528;DHT22;23372;52.050;4.810;2024-03-25T05:04:07;3.80;99.90
37528;DHT22;23372;52.050;4.810;2024-03-25T05:06:35;3.80;99.90
37528;DHT22;23372;52.050;4.810;2024-03-25T05:09:01;3.80;99.90
37528;DHT22;23372;52.050;4.810;2024-03-25T05:11:26;3.80;99.90
37528;DHT22;23372;52.050;4.810;2024-03-25T05:13:52;3.90;99.90
37528;DHT22;23372;52.050;4.810;2024-03-25T05:16:17;3.90;99.90
37528;DHT22;23372;52.050;4.810;2024-03-25T05:18:43;4.00;99.90
37528;DHT22;23372;52.050;4.810;2024-03-25T05:21:09;4.00;99.90
37528;DHT22;23372;52.050;4.810;2024-03-25T05:23:35;4.00;99.90
37528;DHT22;23372;52.050;4.810;2024-03-25T05:26:00;4.00;99.90
37528;DHT22;23372;52.050;4.810;2024-03-25T05:28:26;4.00;99.90
37528;DHT22;23372;52.050;4.810;2024-03-25T05:30:51;4.00;99.90
37528;DHT22;23372;52.050;4.810;2024-03-25T05:33:17;4.10;99.90
37528;DHT22;23372;52.050;4.810;2024-03-25T05:35:43;4.00;99.90
37528;DHT22;23372;52.050;4.810;2024-03-25T05:38:08;3.90;99.90
37528;DHT22;23372;52.050;4.810;2024-03-25T05:40:34;3.90;99.90
37528;DHT22;23372;52.050;4.810;2024-03-25T05:42:59;3.90;99.90
37528;DHT22;23372;52.050;4.810;2024-03-25T05:45:25;3.90;99.90
37528;DHT22;23372;52.050;4.810;2024-03-25T05:47:51;3.90;99.90
37528;DHT22;23372;52.050;4.810;2024-03-25T05:50:16;3.90;99.90
37528;DHT22;23372;52.050;4.810;2024-03-25T05:52:42;3.90;99.90
37528;DHT22;23372;52.050;4.810;2024-03-25T05:55:08;3.90;99.90
37528;DHT22;23372;52.050;4.810;2024-03-25T05:57:35;3.90;99.90
37528;DHT22;23372;52.050;4.810;2024-03-25T06:00:02;4.00;99.90
37528;DHT22;23372;52.050;4.810;2024-03-25T06:02:28;4.00;99.90
37528;DHT22;23372;52.050;4.810;2024-03-25T06:04:54;4.00;99.90
37528;DHT22;23372;52.050;4.810;2024-03-25T06:07:21;4.00;99.90
37528;DHT22;23372;52.050;4.810;2024-03-25T06:09:47;4.00;99.90
37528;DHT22;23372;52.050;4.810;2024-03-25T06:12:12;4.00;99.90
37528;DHT22;23372;52.050;4.810;2024-03-25T06:14:38;4.10;99.90
37528;DHT22;23372;52.050;4.810;2024-03-25T06:17:04;4.10;99.90
37528;DHT22;23372;52.050;4.810;2024-03-25T06:19:30;4.10;99.90
37528;DHT22;23372;52.050;4.810;2024-03-25T06:21:55;4.20;99.90
37528;DHT22;23372;52.050;4.810;2024-03-25T06:24:21;4.20;99.90
37528;DHT22;23372;52.050;4.810;2024-03-25T06:26:46;4.30;99.90
37528;DHT22;23372;52.050;4.810;2024-03-25T06:29:12;4.30;99.90
37528;DHT22;23372;52.050;4.810;2024-03-25T06:31:37;4.20;99.90
37528;DHT22;23372;52.050;4.810;2024-03-25T06:34:23;4.10;99.90
37528;DHT22;23372;52.050;4.810;2024-03-25T06:36:49;4.00;99.90
37528;DHT22;23372;52.050;4.810;2024-03-25T06:39:15;4.00;99.90
37528;DHT22;23372;52.050;4.810;2024-03-25T06:41:40;4.10;99.90
37528;DHT22;23372;52.050;4.810;2024-03-25T06:44:06;4.40;99.90
37528;DHT22;23372;52.050;4.810;2024-03-25T06:46:32;4.50;99.90
37528;DHT22;23372;52.050;4.810;2024-03-25T06:48:58;4.60;99.90
37528;DHT22;23372;52.050;4.810;2024-03-25T06:51:24;4.80;99.90
37528;DHT22;23372;52.050;4.810;2024-03-25T06:53:50;4.90;99.90
37528;DHT22;23372;52.050;4.810;2024-03-25T06:56:16;5.40;99.90
37528;DHT22;23372;52.050;4.810;2024-03-25T06:58:42;6.40;99.90
37528;DHT22;23372;52.050;4.810;2024-03-25T07:01:09;7.70;99.90
37528;DHT22;23372;52.050;4.810;2024-03-25T07:03:38;9.00;99.90
37528;DHT22;23372;52.050;4.810;2024-03-25T07:06:04;10.30;99.90
37528;DHT22;23372;52.050;4.810;2024-03-25T07:08:31;11.50;99.90
37528;DHT22;23372;52.050;4.810;2024-03-25T07:10:57;12.50;99.90
37528;DHT22;23372;52.050;4.810;2024-03-25T07:13:22;13.70;99.90
37528;DHT22;23372;52.050;4.810;2024-03-25T07:15:48;13.80;99.90
37528;DHT22;23372;52.050;4.810;2024-03-25T07:18:14;14.00;99.90
37528;DHT22;23372;52.050;4.810;2024-03-25T07:20:40;15.30;99.90
37528;DHT22;23372;52.050;4.810;2024-03-25T07:23:06;15.90;99.90
37528;DHT22;23372;52.050;4.810;2024-03-25T07:25:31;15.90;99.90
37528;DHT22;23372;52.050;4.810;2024-03-25T07:27:58;17.00;99.90
37528;DHT22;23372;52.050;4.810;2024-03-25T07:30:23;17.50;99.90
37528;DHT22;23372;52.050;4.810;2024-03-25T07:32:54;15.60;99.90
37528;DHT22;23372;52.050;4.810;2024-03-25T07:35:20;17.40;99.90
37528;DHT22;23372;52.050;4.810;2024-03-25T07:37:46;17.60;99.90
37528;DHT22;23372;52.050;4.810;2024-03-25T07:40:12;18.50;99.90
37528;DHT22;23372;52.050;4.810;2024-03-25T07:42:38;17.40;99.90
37528;DHT22;23372;52.050;4.810;2024-03-25T07:45:04;19.20;99.90
37528;DHT22;23372;52.050;4.810;2024-03-25T07:47:31;20.40;99.90
37528;DHT22;23372;52.050;4.810;2024-03-25T07:49:57;20.00;91.90
37528;DHT22;23372;52.050;4.810;2024-03-25T07:52:24;17.30;97.20
37528;DHT22;23372;52.050;4.810;2024-03-25T07:54:50;15.60;99.90
37528;DHT22;23372;52.050;4.810;2024-03-25T07:57:16;15.10;99.90
37528;DHT22;23372;52.050;4.810;2024-03-25T07:59:42;15.90;99.90
37528;DHT22;23372;52.050;4.810;2024-03-25T08:02:07;16.40;99.90
37528;DHT22;23372;52.050;4.810;2024-03-25T08:04:33;14.60;99.90
37528;DHT22;23372;52.050;4.810;2024-03-25T08:06:59;15.20;99.90
37528;DHT22;23372;52.050;4.810;2024-03-25T08:09:24;16.00;99.90
37528;DHT22;23372;52.050;4.810;2024-03-25T08:11:50;16.10;99.90
37528;DHT22;23372;52.050;4.810;2024-03-25T08:14:15;15.30;99.90
37528;DHT22;23372;52.050;4.810;2024-03-25T08:16:41;13.80;99.90
37528;DHT22;23372;52.050;4.810;2024-03-25T08:19:07;13.30;99.90
37528;DHT22;23372;52.050;4.810;2024-03-25T08:21:32;13.50;99.90
37528;DHT22;23372;52.050;4.810;2024-03-25T08:23:58;13.50;99.90
37528;DHT22;23372;52.050;4.810;2024-03-25T08:26:23;14.20;99.90
37528;DHT22;23372;52.050;4.810;2024-03-25T08:28:49;14.90;99.90
37528;DHT22;23372;52.050;4.810;2024-03-25T08:31:15;15.90;99.90
37528;DHT22;23372;52.050;4.810;2024-03-25T08:33:41;16.90;99.90
37528;DHT22;23372;52.050;4.810;2024-03-25T08:36:07;16.20;99.90
37528;DHT22;23372;52.050;4.810;2024-03-25T08:38:33;14.90;99.90
37528;DHT22;23372;52.050;4.810;2024-03-25T08:40:58;14.70;99.90
37528;DHT22;23372;52.050;4.810;2024-03-25T08:43:24;16.50;99.90
37528;DHT22;23372;52.050;4.810;2024-03-25T08:45:50;16.70;99.90
37528;DHT22;23372;52.050;4.810;2024-03-25T08:48:15;15.00;99.90
37528;DHT22;23372;52.050;4.810;2024-03-25T08:50:41;15.90;99.90
37528;DHT22;23372;52.050;4.810;2024-03-25T08:53:07;16.20;99.90
37528;DHT22;23372;52.050;4.810;2024-03-25T08:55:33;16.50;99.90
37528;DHT22;23372;52.050;4.810;2024-03-25T08:57:59;16.80;99.90
37528;DHT22;23372;52.050;4.810;2024-03-25T09:00:26;16.60;99.90
37528;DHT22;23372;52.050;4.810;2024-03-25T09:02:53;15.90;99.90
37528;DHT22;23372;52.050;4.810;2024-03-25T09:05:19;16.20;99.90
37528;DHT22;23372;52.050;4.810;2024-03-25T09:07:45;15.90;99.90
37528;DHT22;23372;52.050;4.810;2024-03-25T09:10:15;15.40;99.90
37528;DHT22;23372;52.050;4.810;2024-03-25T09:12:52;14.60;99.90
37528;DHT22;23372;52.050;4.810;2024-03-25T09:15:18;15.30;99.90
37528;DHT22;23372;52.050;4.810;2024-03-25T09:17:43;14.70;99.90
37528;DHT22;23372;52.050;4.810;2024-03-25T09:20:09;13.70;99.90
37528;DHT22;23372;52.050;4.810;2024-03-25T09:22:43;12.90;99.90
37528;DHT22;23372;52.050;4.810;2024-03-25T09:25:08;12.40;99.90
37528;DHT22;23372;52.050;4.810;2024-03-25T09:27:34;12.30;99.90
37528;DHT22;23372;52.050;4.810;2024-03-25T09:30:00;12.00;99.90
37528;DHT22;23372;52.050;4.810;2024-03-25T09:32:25;12.00;99.90
37528;DHT22;23372;52.050;4.810;2024-03-25T09:34:51;12.00;99.90
37528;DHT22;23372;52.050;4.810;2024-03-25T09:37:17;12.10;99.90
37528;DHT22;23372;52.050;4.810;2024-03-25T09:39:43;12.20;99.90
37528;DHT22;23372;52.050;4.810;2024-03-25T09:42:15;12.20;99.90
37528;DHT22;23372;52.050;4.810;2024-03-25T09:44:41;12.10;99.90
37528;DHT22;23372;52.050;4.810;2024-03-25T09:47:07;12.30;99.90
37528;DHT22;23372;52.050;4.810;2024-03-25T09:49:33;12.30;99.90
37528;DHT22;23372;52.050;4.810;2024-03-25T09:52:00;12.50;99.90
37528;DHT22;23372;52.050;4.810;2024-03-25T09:54:27;11.90;99.90
37528;DHT22;23372;52.050;4.810;2024-03-25T09:56:53;12.30;99.90
37528;DHT22;23372;52.050;4.810;2024-03-25T09:59:20;12.30;99.90
37528;DHT22;23372;52.050;4.810;2024-03-25T10:01:45;12.40;99.90
37528;DHT22;23372;52.050;4.810;2024-03-25T10:04:11;12.40;99.90
37528;DHT22;23372;52.050;4.810;2024-03-25T10:06:39;12.60;99.90
37528;DHT22;23372;52.050;4.810;2024-03-25T10:09:05;12.40;99.90
37528;DHT22;23372;52.050;4.810;2024-03-25T10:11:32;12.70;99.90
37528;DHT22;23372;52.050;4.810;2024-03-25T10:14:01;12.20;99.90
37528;DHT22;23372;52.050;4.810;2024-03-25T10:16:27;12.30;99.90
37528;DHT22;23372;52.050;4.810;2024-03-25T10:18:52;12.10;99.90
37528;DHT22;23372;52.050;4.810;2024-03-25T10:21:20;12.20;99.90
37528;DHT22;23372;52.050;4.810;2024-03-25T10:23:48;11.80;99.90
37528;DHT22;23372;52.050;4.810;2024-03-25T10:26:30;11.90;99.90
37528;DHT22;23372;52.050;4.810;2024-03-25T10:29:05;12.00;99.90
37528;DHT22;23372;52.050;4.810;2024-03-25T10:31:32;12.20;99.90
37528;DHT22;23372;52.050;4.810;2024-03-25T10:33:58;12.10;99.90
37528;DHT22;23372;52.050;4.810;2024-03-25T10:36:24;12.00;99.90
37528;DHT22;23372;52.050;4.810;2024-03-25T10:38:55;12.10;99.90
37528;DHT22;23372;52.050;4.810;2024-03-25T10:41:21;11.70;99.90
37528;DHT22;23372;52.050;4.810;2024-03-25T10:43:48;11.60;99.90
37528;DHT22;23372;52.050;4.810;2024-03-25T10:46:18;11.80;99.90
37528;DHT22;23372;52.050;4.810;2024-03-25T10:48:57;11.90;99.90
37528;DHT22;23372;52.050;4.810;2024-03-25T10:51:26;11.70;99.90
37528;DHT22;23372;52.050;4.810;2024-03-25T10:53:52;12.30;99.90
37528;DHT22;23372;52.050;4.810;2024-03-25T10:56:20;12.50;99.90
37528;DHT22;23372;52.050;4.810;2024-03-25T10:58:50;12.80;99.90
37528;DHT22;23372;52.050;4.810;2024-03-25T11:01:19;13.10;99.90
37528;DHT22;23372;52.050;4.810;2024-03-25T11:03:46;12.90;99.90
37528;DHT22;23372;52.050;4.810;2024-03-25T11:06:13;13.00;99.90
37528;DHT22;23372;52.050;4.810;2024-03-25T11:08:39;13.00;99.90
37528;DHT22;23372;52.050;4.810;2024-03-25T11:11:07;13.10;99.90
37528;DHT22;23372;52.050;4.810;2024-03-25T11:13:33;13.20;99.90
37528;DHT22;23372;52.050;4.810;2024-03-25T11:15:59;13.10;99.90
37528;DHT22;23372;52.050;4.810;2024-03-25T11:18:25;13.10;99.90
37528;DHT22;23372;52.050;4.810;2024-03-25T11:21:07;13.00;99.90
37528;DHT22;23372;52.050;4.810;2024-03-25T11:23:40;13.20;99.90
37528;DHT22;23372;52.050;4.810;2024-03-25T11:26:18;13.20;99.90
37528;DHT22;23372;52.050;4.810;2024-03-25T11:28:43;12.80;99.90
37528;DHT22;23372;52.050;4.810;2024-03-25T11:31:11;12.50;99.90
37528;DHT22;23372;52.050;4.810;2024-03-25T11:33:38;11.90;99.90
37528;DHT22;23372;52.050;4.810;2024-03-25T11:36:05;12.20;99.90
37528;DHT22;23372;52.050;4.810;2024-03-25T11:38:31;12.60;99.90
37528;DHT22;23372;52.050;4.810;2024-03-25T11:40:56;12.80;99.90
37528;DHT22;23372;52.050;4.810;2024-03-25T11:43:23;13.10;99.90
37528;DHT22;23372;52.050;4.810;2024-03-25T11:45:48;13.30;99.90
37528;DHT22;23372;52.050;4.810;2024-03-25T11:48:15;13.30;99.90
37528;DHT22;23372;52.050;4.810;2024-03-25T11:50:44;13.40;99.90
37528;DHT22;23372;52.050;4.810;2024-03-25T11:53:10;13.40;99.90
37528;DHT22;23372;52.050;4.810;2024-03-25T11:55:36;13.10;99.90
37528;DHT22;23372;52.050;4.810;2024-03-25T11:58:02;13.00;99.90
37528;DHT22;23372;52.050;4.810;2024-03-25T12:00:27;12.70;99.90
37528;DHT22;23372;52.050;4.810;2024-03-25T12:02:54;12.90;99.90
37528;DHT22;23372;52.050;4.810;2024-03-25T12:05:20;12.90;99.90
37528;DHT22;23372;52.050;4.810;2024-03-25T12:07:46;13.00;99.90
37528;DHT22;23372;52.050;4.810;2024-03-25T12:10:12;13.00;93.10
37528;DHT22;23372;52.050;4.810;2024-03-25T12:12:56;13.00;99.90
37528;DHT22;23372;52.050;4.810;2024-03-25T12:15:22;13.10;99.90
37528;DHT22;23372;52.050;4.810;2024-03-25T12:17:48;12.80;99.90
37528;DHT22;23372;52.050;4.810;2024-03-25T12:20:14;12.90;99.90
37528;DHT22;23372;52.050;4.810;2024-03-25T12:22:40;12.90;99.90
37528;DHT22;23372;52.050;4.810;2024-03-25T12:25:07;12.80;99.90
37528;DHT22;23372;52.050;4.810;2024-03-25T12:27:35;12.60;99.90
37528;DHT22;23372;52.050;4.810;2024-03-25T12:30:04;12.50;99.90
37528;DHT22;23372;52.050;4.810;2024-03-25T12:32:40;12.50;99.90
37528;DHT22;23372;52.050;4.810;2024-03-25T12:35:10;12.60;99.90
37528;DHT22;23372;52.050;4.810;2024-03-25T12:37:40;12.60;99.90
37528;DHT22;23372;52.050;4.810;2024-03-25T12:40:09;12.60;99.90
37528;DHT22;23372;52.050;4.810;2024-03-25T12:42:36;12.60;99.90
37528;DHT22;23372;52.050;4.810;2024-03-25T12:45:02;12.70;99.90
37528;DHT22;23372;52.050;4.810;2024-03-25T12:47:29;12.90;99.90
37528;DHT22;23372;52.050;4.810;2024-03-25T12:49:54;12.80;99.90
37528;DHT22;23372;52.050;4.810;2024-03-25T12:52:20;12.70;99.90
37528;DHT22;23372;52.050;4.810;2024-03-25T12:54:46;12.90;99.90
37528;DHT22;23372;52.050;4.810;2024-03-25T12:57:12;13.10;99.90
37528;DHT22;23372;52.050;4.810;2024-03-25T12:59:38;13.00;99.90
37528;DHT22;23372;52.050;4.810;2024-03-25T13:02:04;12.90;99.90
37528;DHT22;23372;52.050;4.810;2024-03-25T13:04:30;12.60;99.90
37528;DHT22;23372;52.050;4.810;2024-03-25T13:06:55;12.20;99.90
37528;DHT22;23372;52.050;4.810;2024-03-25T13:09:21;12.10;99.90
37528;DHT22;23372;52.050;4.810;2024-03-25T13:11:47;11.80;99.90
37528;DHT22;23372;52.050;4.810;2024-03-25T13:14:13;11.90;99.90
37528;DHT22;23372;52.050;4.810;2024-03-25T13:16:39;12.30;99.90
37528;DHT22;23372;52.050;4.810;2024-03-25T13:19:05;12.80;99.90
37528;DHT22;23372;52.050;4.810;2024-03-25T13:21:32;12.90;99.90
37528;DHT22;23372;52.050;4.810;2024-03-25T13:23:58;11.80;99.90
37528;DHT22;23372;52.050;4.810;2024-03-25T13:26:23;11.40;99.90
37528;DHT22;23372;52.050;4.810;2024-03-25T13:28:49;11.50;99.90
37528;DHT22;23372;52.050;4.810;2024-03-25T13:31:15;11.80;99.90
37528;DHT22;23372;52.050;4.810;2024-03-25T13:33:41;12.00;99.90
37528;DHT22;23372;52.050;4.810;2024-03-25T13:36:07;11.90;99.90
37528;DHT22;23372;52.050;4.810;2024-03-25T13:38:33;11.70;99.90
37528;DHT22;23372;52.050;4.810;2024-03-25T13:41:01;11.80;99.90
37528;DHT22;23372;52.050;4.810;2024-03-25T13:43:27;11.90;99.90
37528;DHT22;23372;52.050;4.810;2024-03-25T13:45:52;12.30;99.90
37528;DHT22;23372;52.050;4.810;2024-03-25T13:48:18;12.70;99.90
37528;DHT22;23372;52.050;4.810;2024-03-25T13:50:44;13.10;99.90
37528;DHT22;23372;52.050;4.810;2024-03-25T13:53:10;12.70;99.90
37528;DHT22;23372;52.050;4.810;2024-03-25T13:55:36;12.30;99.90
37528;DHT22;23372;52.050;4.810;2024-03-25T13:58:02;12.20;99.90
37528;DHT22;23372;52.050;4.810;2024-03-25T14:00:28;12.20;99.90
37528;DHT22;23372;52.050;4.810;2024-03-25T14:02:54;12.10;99.90
37528;DHT22;23372;52.050;4.810;2024-03-25T14:05:21;12.20;99.90
37528;DHT22;23372;52.050;4.810;2024-03-25T14:07:47;12.50;99.90
37528;DHT22;23372;52.050;4.810;2024-03-25T14:10:12;12.70;99.90
37528;DHT22;23372;52.050;4.810;2024-03-25T14:12:38;12.70;99.90
37528;DHT22;23372;52.050;4.810;2024-03-25T14:15:04;12.30;99.90
37528;DHT22;23372;52.050;4.810;2024-03-25T14:17:30;12.30;99.90
37528;DHT22;23372;52.050;4.810;2024-03-25T14:19:56;12.20;99.90
37528;DHT22;23372;52.050;4.810;2024-03-25T14:22:22;12.40;99.90
37528;DHT22;23372;52.050;4.810;2024-03-25T14:24:47;12.50;99.90
37528;DHT22;23372;52.050;4.810;2024-03-25T14:27:13;12.70;99.90
37528;DHT22;23372;52.050;4.810;2024-03-25T14:29:39;12.80;99.90
37528;DHT22;23372;52.050;4.810;2024-03-25T14:32:04;12.90;99.90
37528;DHT22;23372;52.050;4.810;2024-03-25T14:34:30;13.10;99.50
37528;DHT22;23372;52.050;4.810;2024-03-25T14:36:56;13.00;98.50
37528;DHT22;23372;52.050;4.810;2024-03-25T14:39:22;12.60;99.90
37528;DHT22;23372;52.050;4.810;2024-03-25T14:41:49;12.40;99.90
37528;DHT22;23372;52.050;4.810;2024-03-25T14:44:15;12.00;98.70
37528;DHT22;23372;52.050;4.810;2024-03-25T14:46:40;11.80;99.90
37528;DHT22;23372;52.050;4.810;2024-03-25T14:49:06;12.10;99.90
37528;DHT22;23372;52.050;4.810;2024-03-25T14:51:31;12.40;99.90
37528;DHT22;23372;52.050;4.810;2024-03-25T14:53:57;12.70;99.90
37528;DHT22;23372;52.050;4.810;2024-03-25T14:56:23;13.00;99.90
37528;DHT22;23372;52.050;4.810;2024-03-25T14:58:48;13.00;99.90
37528;DHT22;23372;52.050;4.810;2024-03-25T15:01:14;12.50;96.60
37528;DHT22;23372;52.050;4.810;2024-03-25T15:03:40;12.40;99.90
37528;DHT22;23372;52.050;4.810;2024-03-25T15:06:05;12.50;95.80
37528;DHT22;23372;52.050;4.810;2024-03-25T15:08:32;12.60;99.90
37528;DHT22;23372;52.050;4.810;2024-03-25T15:10:57;13.00;99.90
37528;DHT22;23372;52.050;4.810;2024-03-25T15:13:23;13.30;99.90
37528;DHT22;23372;52.050;4.810;2024-03-25T15:15:48;13.60;99.90
37528;DHT22;23372;52.050;4.810;2024-03-25T15:18:14;13.10;95.20
37528;DHT22;23372;52.050;4.810;2024-03-25T15:20:39;13.40;99.90
37528;DHT22;23372;52.050;4.810;2024-03-25T15:23:05;13.60;99.90
37528;DHT22;23372;52.050;4.810;2024-03-25T15:25:32;13.70;99.90
37528;DHT22;23372;52.050;4.810;2024-03-25T15:27:57;13.80;99.90
37528;DHT22;23372;52.050;4.810;2024-03-25T15:30:23;14.00;99.40
37528;DHT22;23372;52.050;4.810;2024-03-25T15:32:49;13.90;99.90